createdAt,value
2018-09-02T00:00:22.114Z,0
2018-09-02T00:01:22.788Z,0
2018-09-02T00:02:23.461Z,0
2018-09-02T00:03:24.133Z,0
2018-09-02T00:04:24.810Z,0
2018-09-02T00:05:25.482Z,0
2018-09-02T00:06:26.156Z,0
2018-09-02T00:07:26.827Z,0
2018-09-02T00:08:27.501Z,0
2018-09-02T00:09:28.176Z,0
2018-09-02T00:10:28.849Z,0
2018-09-02T00:11:29.524Z,0
2018-09-02T00:12:30.196Z,0
2018-09-02T00:13:30.876Z,0
2018-09-02T00:14:31.603Z,0
2018-09-02T00:15:32.318Z,0
2018-09-02T00:16:32.990Z,0
2018-09-02T00:17:33.668Z,0
2018-09-02T00:18:34.338Z,0
2018-09-02T00:19:35.013Z,0
2018-09-02T00:20:35.702Z,0
2018-09-02T00:21:36.409Z,0
2018-09-02T00:22:37.082Z,0
2018-09-02T00:23:37.757Z,0
2018-09-02T00:24:38.430Z,0
2018-09-02T00:25:39.102Z,0
2018-09-02T00:26:39.777Z,0
2018-09-02T00:27:40.450Z,0
2018-09-02T00:28:41.124Z,0
2018-09-02T00:29:41.798Z,0
2018-09-02T00:30:42.469Z,0
2018-09-02T00:31:43.143Z,0
2018-09-02T00:32:43.817Z,0
2018-09-02T00:33:44.528Z,0
2018-09-02T00:34:45.164Z,0
2018-09-02T00:35:45.836Z,0
2018-09-02T00:36:46.511Z,0
2018-09-02T00:37:47.185Z,0
2018-09-02T00:38:47.889Z,0
2018-09-02T00:39:48.575Z,0
2018-09-02T00:40:49.248Z,0
2018-09-02T00:41:49.924Z,0
2018-09-02T00:42:50.597Z,0
2018-09-02T00:43:51.271Z,0
2018-09-02T00:44:51.944Z,0
2018-09-02T00:45:52.617Z,0
2018-09-02T00:46:53.292Z,0
2018-09-02T00:47:53.966Z,0
2018-09-02T00:48:54.639Z,0
2018-09-02T00:49:55.361Z,0
2018-09-02T00:50:56.036Z,0
2018-09-02T00:51:56.752Z,0
2018-09-02T00:52:57.428Z,0
2018-09-02T00:53:58.100Z,0
2018-09-02T00:54:58.772Z,0
2018-09-02T00:55:59.448Z,0
2018-09-02T00:57:00.121Z,0
2018-09-02T00:58:00.794Z,0
2018-09-02T00:59:01.468Z,0
2018-09-02T01:00:02.190Z,0
2018-09-02T01:01:02.864Z,0
2018-09-02T01:02:03.536Z,0
2018-09-02T01:03:04.211Z,0
2018-09-02T01:04:04.885Z,0
2018-09-02T01:05:05.602Z,0
2018-09-02T01:06:06.277Z,0
2018-09-02T01:07:06.950Z,0
2018-09-02T01:08:07.624Z,0
2018-09-02T01:09:08.297Z,0
2018-09-02T01:10:08.972Z,0
2018-09-02T01:11:09.645Z,0
2018-09-02T01:12:10.320Z,0
2018-09-02T01:13:10.992Z,0
2018-09-02T01:14:11.667Z,0
2018-09-02T01:15:12.383Z,0
2018-09-02T01:16:13.056Z,0
2018-09-02T01:17:13.734Z,0
2018-09-02T01:18:14.404Z,0
2018-09-02T01:19:15.078Z,0
2018-09-02T01:20:15.752Z,0
2018-09-02T01:21:16.475Z,0
2018-09-02T01:22:17.148Z,0
2018-09-02T01:23:17.822Z,0
2018-09-02T01:24:18.497Z,0
2018-09-02T01:25:19.170Z,0
2018-09-02T01:26:19.845Z,0
2018-09-02T01:27:20.518Z,0
2018-09-02T01:28:21.191Z,0
2018-09-02T01:29:21.865Z,0
2018-09-02T01:30:22.539Z,0
2018-09-02T01:31:23.254Z,0
2018-09-02T01:32:23.972Z,0
2018-09-02T01:33:24.689Z,0
2018-09-02T01:34:25.368Z,0
2018-09-02T01:35:26.035Z,0
2018-09-02T01:36:26.709Z,0
2018-09-02T01:37:27.381Z,0
2018-09-02T01:38:28.055Z,0
2018-09-02T01:39:28.729Z,0
2018-09-02T01:40:29.563Z,0
2018-09-02T01:41:30.259Z,0
2018-09-02T01:42:30.934Z,0
2018-09-02T01:43:31.608Z,0
2018-09-02T01:44:32.284Z,0
2018-09-02T01:45:33.007Z,0
2018-09-02T01:46:33.680Z,0
2018-09-02T01:47:34.353Z,0
2018-09-02T01:48:35.075Z,0
2018-09-02T01:49:35.761Z,0
2018-09-02T01:50:36.415Z,0
2018-09-02T01:51:37.092Z,0
2018-09-02T01:52:37.809Z,0
2018-09-02T01:53:38.482Z,0
2018-09-02T01:54:39.155Z,0
2018-09-02T01:55:39.828Z,0
2018-09-02T01:56:40.502Z,0
2018-09-02T01:57:41.176Z,0
2018-09-02T01:58:41.889Z,0
2018-09-02T01:59:42.564Z,0
2018-09-02T02:00:43.263Z,0
2018-09-02T02:01:43.912Z,0
2018-09-02T02:02:44.584Z,0
2018-09-02T02:03:45.259Z,0
2018-09-02T02:04:45.930Z,0
2018-09-02T02:05:46.603Z,0
2018-09-02T02:06:47.277Z,0
2018-09-02T02:07:47.950Z,0
2018-09-02T02:08:48.674Z,0
2018-09-02T02:09:49.296Z,0
2018-09-02T02:10:49.969Z,0
2018-09-02T02:11:50.649Z,0
2018-09-02T02:12:51.316Z,0
2018-09-02T02:13:51.991Z,0
2018-09-02T02:14:52.664Z,0
2018-09-02T02:15:53.339Z,0
2018-09-02T02:16:54.057Z,0
2018-09-02T02:17:54.727Z,0
2018-09-02T02:18:55.400Z,0
2018-09-02T02:19:56.073Z,0
2018-09-02T02:20:56.751Z,0
2018-09-02T02:21:57.422Z,0
2018-09-02T02:22:58.094Z,0
2018-09-02T02:23:58.767Z,0
2018-09-02T02:24:59.482Z,0
2018-09-02T02:26:00.156Z,0
2018-09-02T02:27:00.831Z,0
2018-09-02T02:28:01.506Z,0
2018-09-02T02:29:02.178Z,0
2018-09-02T02:30:02.852Z,0
2018-09-02T02:31:03.524Z,0
2018-09-02T02:32:04.199Z,0
2018-09-02T02:33:04.872Z,0
2018-09-02T02:34:05.545Z,0
2018-09-02T02:35:06.222Z,0
2018-09-02T02:36:06.935Z,0
2018-09-02T02:37:07.617Z,0
2018-09-02T02:38:08.300Z,0
2018-09-02T02:39:09.030Z,0
2018-09-02T02:40:09.703Z,0
2018-09-02T02:41:10.376Z,0
2018-09-02T02:42:11.090Z,0
2018-09-02T02:43:11.766Z,0
2018-09-02T02:44:12.480Z,0
2018-09-02T02:45:13.155Z,0
2018-09-02T02:46:13.828Z,0
2018-09-02T02:47:14.501Z,0
2018-09-02T02:48:15.177Z,0
2018-09-02T02:49:15.849Z,0
2018-09-02T02:50:16.523Z,0
2018-09-02T02:51:17.195Z,0
2018-09-02T02:52:17.867Z,0
2018-09-02T02:53:18.542Z,0
2018-09-02T02:54:19.215Z,0
2018-09-02T02:55:19.887Z,0
2018-09-02T02:56:20.612Z,0
2018-09-02T02:57:21.277Z,0
2018-09-02T02:58:21.952Z,0
2018-09-02T02:59:22.624Z,0
2018-09-02T03:00:23.299Z,0
2018-09-02T03:01:23.973Z,0
2018-09-02T03:02:24.645Z,0
2018-09-02T03:03:25.377Z,0
2018-09-02T03:04:26.048Z,0
2018-09-02T03:05:26.721Z,0
2018-09-02T03:06:27.397Z,0
2018-09-02T03:07:28.129Z,0
2018-09-02T03:08:28.802Z,0
2018-09-02T03:09:29.479Z,0
2018-09-02T03:10:30.153Z,0
2018-09-02T03:11:30.828Z,0
2018-09-02T03:12:31.502Z,0
2018-09-02T03:13:32.175Z,0
2018-09-02T03:14:32.852Z,0
2018-09-02T03:15:33.529Z,0
2018-09-02T03:16:34.241Z,0
2018-09-02T03:17:34.914Z,0
2018-09-02T03:18:35.641Z,0
2018-09-02T03:19:36.318Z,0
2018-09-02T03:20:36.993Z,0
2018-09-02T03:21:37.715Z,0
2018-09-02T03:22:38.389Z,0
2018-09-02T03:23:39.063Z,0
2018-09-02T03:24:39.778Z,0
2018-09-02T03:25:40.452Z,0
2018-09-02T03:26:41.135Z,0
2018-09-02T03:27:41.845Z,0
2018-09-02T03:28:42.559Z,0
2018-09-02T03:29:43.234Z,0
2018-09-02T03:30:43.956Z,0
2018-09-02T03:31:44.631Z,0
2018-09-02T03:32:45.302Z,0
2018-09-02T03:33:45.977Z,0
2018-09-02T03:34:46.648Z,0
2018-09-02T03:35:47.324Z,0
2018-09-02T03:36:47.997Z,0
2018-09-02T03:37:48.671Z,0
2018-09-02T03:38:49.343Z,0
2018-09-02T03:39:50.017Z,0
2018-09-02T03:40:50.691Z,0
2018-09-02T03:41:51.364Z,0
2018-09-02T03:42:52.038Z,0
2018-09-02T03:43:52.710Z,0
2018-09-02T03:44:53.384Z,0
2018-09-02T03:45:54.060Z,0
2018-09-02T03:46:54.775Z,0
2018-09-02T03:47:55.449Z,0
2018-09-02T03:48:56.121Z,0
2018-09-02T03:49:56.794Z,0
2018-09-02T03:50:57.469Z,0
2018-09-02T03:51:58.143Z,0
2018-09-02T03:52:58.818Z,0
2018-09-02T03:53:59.490Z,0
2018-09-02T03:55:00.163Z,0
2018-09-02T03:56:00.837Z,0
2018-09-02T03:57:01.510Z,0
2018-09-02T03:58:02.183Z,0
2018-09-02T03:59:02.857Z,0
2018-09-02T04:00:03.529Z,0
2018-09-02T04:01:04.204Z,0
2018-09-02T04:02:04.876Z,0
2018-09-02T04:03:05.550Z,0
2018-09-02T04:04:06.229Z,0
2018-09-02T04:05:06.896Z,0
2018-09-02T04:06:07.570Z,0
2018-09-02T04:07:08.244Z,0
2018-09-02T04:08:08.917Z,0
2018-09-02T04:09:09.591Z,0
2018-09-02T04:10:10.265Z,0
2018-09-02T04:11:10.969Z,0
2018-09-02T04:12:11.612Z,0
2018-09-02T04:13:12.287Z,4
2018-09-02T04:14:12.960Z,4
2018-09-02T04:15:13.633Z,4
2018-09-02T04:16:14.310Z,0
2018-09-02T04:17:15.024Z,4
2018-09-02T04:18:15.741Z,4
2018-09-02T04:19:16.415Z,8
2018-09-02T04:20:17.089Z,4
2018-09-02T04:21:17.763Z,8
2018-09-02T04:22:18.436Z,8
2018-09-02T04:23:19.111Z,8
2018-09-02T04:24:19.782Z,12
2018-09-02T04:25:20.457Z,12
2018-09-02T04:26:21.134Z,16
2018-09-02T04:27:21.807Z,16
2018-09-02T04:28:22.481Z,20
2018-09-02T04:29:23.155Z,20
2018-09-02T04:30:23.833Z,24
2018-09-02T04:31:24.508Z,24
2018-09-02T04:32:25.183Z,24
2018-09-02T04:33:25.857Z,24
2018-09-02T04:34:26.561Z,24
2018-09-02T04:35:27.249Z,28
2018-09-02T04:36:27.925Z,28
2018-09-02T04:37:28.599Z,28
2018-09-02T04:38:29.282Z,32
2018-09-02T04:39:29.950Z,36
2018-09-02T04:40:30.626Z,36
2018-09-02T04:41:31.303Z,36
2018-09-02T04:42:31.975Z,36
2018-09-02T04:43:32.652Z,40
2018-09-02T04:44:33.326Z,44
2018-09-02T04:45:34.043Z,40
2018-09-02T04:46:34.717Z,44
2018-09-02T04:47:35.395Z,48
2018-09-02T04:48:36.072Z,48
2018-09-02T04:49:36.741Z,48
2018-09-02T04:50:37.415Z,52
2018-09-02T04:51:38.091Z,56
2018-09-02T04:52:38.766Z,56
2018-09-02T04:53:39.443Z,56
2018-09-02T04:54:40.115Z,56
2018-09-02T04:55:40.789Z,60
2018-09-02T04:56:41.467Z,64
2018-09-02T04:57:42.139Z,68
2018-09-02T04:58:42.815Z,68
2018-09-02T04:59:43.489Z,72
2018-09-02T05:00:44.165Z,84
2018-09-02T05:01:44.840Z,96
2018-09-02T05:02:45.515Z,104
2018-09-02T05:03:46.191Z,104
2018-09-02T05:04:46.872Z,100
2018-09-02T05:05:47.545Z,96
2018-09-02T05:06:48.220Z,96
2018-09-02T05:07:48.935Z,96
2018-09-02T05:08:49.611Z,96
2018-09-02T05:09:50.285Z,92
2018-09-02T05:10:50.960Z,96
2018-09-02T05:11:51.635Z,100
2018-09-02T05:12:52.313Z,104
2018-09-02T05:13:52.989Z,116
2018-09-02T05:14:53.665Z,124
2018-09-02T05:15:54.340Z,132
2018-09-02T05:16:55.018Z,132
2018-09-02T05:17:55.693Z,128
2018-09-02T05:18:56.369Z,124
2018-09-02T05:19:57.045Z,124
2018-09-02T05:20:57.722Z,132
2018-09-02T05:21:58.440Z,144
2018-09-02T05:22:59.116Z,156
2018-09-02T05:23:59.791Z,160
2018-09-02T05:25:00.468Z,172
2018-09-02T05:26:01.143Z,184
2018-09-02T05:27:01.818Z,200
2018-09-02T05:28:02.494Z,212
2018-09-02T05:29:03.171Z,228
2018-09-02T05:30:03.846Z,236
2018-09-02T05:31:04.528Z,244
2018-09-02T05:32:05.242Z,240
2018-09-02T05:33:05.919Z,256
2018-09-02T05:34:06.596Z,264
2018-09-02T05:35:07.270Z,272
2018-09-02T05:36:07.948Z,300
2018-09-02T05:37:08.663Z,328
2018-09-02T05:38:09.340Z,336
2018-09-02T05:39:10.058Z,332
2018-09-02T05:40:10.739Z,336
2018-09-02T05:41:11.453Z,336
2018-09-02T05:42:12.131Z,344
2018-09-02T05:43:12.807Z,352
2018-09-02T05:44:13.485Z,368
2018-09-02T05:45:14.162Z,368
2018-09-02T05:46:14.839Z,348
2018-09-02T05:47:15.515Z,336
2018-09-02T05:48:16.193Z,340
2018-09-02T05:49:16.870Z,352
2018-09-02T05:50:17.546Z,356
2018-09-02T05:51:18.225Z,364
2018-09-02T05:52:18.905Z,372
2018-09-02T05:53:19.622Z,368
2018-09-02T05:54:20.300Z,364
2018-09-02T05:55:20.979Z,376
2018-09-02T05:56:21.652Z,380
2018-09-02T05:57:22.329Z,392
2018-09-02T05:58:23.050Z,396
2018-09-02T05:59:23.726Z,400
2018-09-02T06:00:24.408Z,408
2018-09-02T06:01:25.080Z,420
2018-09-02T06:02:25.759Z,432
2018-09-02T06:03:26.435Z,436
2018-09-02T06:04:27.115Z,444
2018-09-02T06:05:27.792Z,456
2018-09-02T06:06:28.467Z,476
2018-09-02T06:07:29.144Z,496
2018-09-02T06:08:29.821Z,504
2018-09-02T06:09:30.500Z,492
2018-09-02T06:10:31.175Z,552
2018-09-02T06:11:31.896Z,572
2018-09-02T06:12:32.573Z,624
2018-09-02T06:13:33.249Z,676
2018-09-02T06:14:33.930Z,744
2018-09-02T06:15:34.604Z,732
2018-09-02T06:16:35.281Z,660
2018-09-02T06:17:35.958Z,672
2018-09-02T06:18:36.634Z,700
2018-09-02T06:19:37.312Z,728
2018-09-02T06:20:37.988Z,748
2018-09-02T06:21:38.666Z,744
2018-09-02T06:22:39.344Z,764
2018-09-02T06:23:40.063Z,812
2018-09-02T06:24:40.740Z,880
2018-09-02T06:25:41.417Z,880
2018-09-02T06:26:42.095Z,852
2018-09-02T06:27:42.777Z,836
2018-09-02T06:28:43.491Z,876
2018-09-02T06:29:44.169Z,1000
2018-09-02T06:30:44.847Z,1084
2018-09-02T06:31:45.525Z,1072
2018-09-02T06:32:46.238Z,1088
2018-09-02T06:33:46.882Z,1112
2018-09-02T06:34:47.561Z,1172
2018-09-02T06:35:48.279Z,1164
2018-09-02T06:36:48.959Z,1228
2018-09-02T06:37:49.637Z,1300
2018-09-02T06:38:50.315Z,1396
2018-09-02T06:39:50.993Z,1444
2018-09-02T06:40:51.671Z,1468
2018-09-02T06:41:52.349Z,1472
2018-09-02T06:42:53.031Z,1572
2018-09-02T06:43:53.705Z,1584
2018-09-02T06:44:54.385Z,1660
2018-09-02T06:45:55.105Z,1684
2018-09-02T06:46:55.849Z,1716
2018-09-02T06:47:56.548Z,1752
2018-09-02T06:48:57.228Z,1860
2018-09-02T06:49:57.906Z,1976
2018-09-02T06:50:58.584Z,2028
2018-09-02T06:51:59.263Z,2072
2018-09-02T06:52:59.943Z,2104
2018-09-02T06:54:00.621Z,2060
2018-09-02T06:55:01.341Z,1864
2018-09-02T06:56:02.021Z,1572
2018-09-02T06:57:02.699Z,1552
2018-09-02T06:58:03.377Z,1624
2018-09-02T06:59:04.099Z,1640
2018-09-02T07:00:04.776Z,1620
2018-09-02T07:01:05.455Z,1608
2018-09-02T07:02:06.132Z,1596
2018-09-02T07:03:06.812Z,1792
2018-09-02T07:04:07.492Z,1820
2018-09-02T07:05:08.170Z,1648
2018-09-02T07:06:08.849Z,1552
2018-09-02T07:07:09.536Z,1200
2018-09-02T07:08:10.239Z,1768
2018-09-02T07:09:10.917Z,1628
2018-09-02T07:10:11.598Z,1636
2018-09-02T07:11:12.276Z,2008
2018-09-02T07:12:12.954Z,2084
2018-09-02T07:13:13.637Z,2128
2018-09-02T07:14:14.326Z,2068
2018-09-02T07:15:15.035Z,2112
2018-09-02T07:16:15.715Z,1996
2018-09-02T07:17:16.394Z,1868
2018-09-02T07:18:17.074Z,1876
2018-09-02T07:19:17.750Z,1760
2018-09-02T07:20:18.429Z,1512
2018-09-02T07:21:19.108Z,1444
2018-09-02T07:22:19.788Z,1332
2018-09-02T07:23:20.467Z,1136
2018-09-02T07:24:21.194Z,1260
2018-09-02T07:25:21.868Z,1268
2018-09-02T07:26:22.549Z,1112
2018-09-02T07:27:23.228Z,1136
2018-09-02T07:28:23.907Z,1312
2018-09-02T07:29:24.602Z,1332
2018-09-02T07:30:25.309Z,1348
2018-09-02T07:31:26.021Z,1256
2018-09-02T07:32:26.667Z,1176
2018-09-02T07:33:27.354Z,1116
2018-09-02T07:34:28.067Z,1312
2018-09-02T07:35:28.747Z,1536
2018-09-02T07:36:29.432Z,1348
2018-09-02T07:37:30.105Z,1236
2018-09-02T07:38:30.786Z,1116
2018-09-02T07:39:31.505Z,1288
2018-09-02T07:40:32.185Z,1624
2018-09-02T07:41:32.863Z,1528
2018-09-02T07:42:33.542Z,1488
2018-09-02T07:43:34.244Z,1616
2018-09-02T07:44:34.899Z,1792
2018-09-02T07:45:35.581Z,1720
2018-09-02T07:46:36.259Z,1704
2018-09-02T07:47:36.940Z,1788
2018-09-02T07:48:37.618Z,1704
2018-09-02T07:49:38.296Z,1484
2018-09-02T07:50:38.979Z,1792
2018-09-02T07:51:39.733Z,2008
2018-09-02T07:52:40.420Z,1748
2018-09-02T07:53:41.100Z,1588
2018-09-02T07:54:41.782Z,1548
2018-09-02T07:55:42.456Z,1772
2018-09-02T07:56:43.134Z,1836
2018-09-02T07:57:43.813Z,1980
2018-09-02T07:58:44.492Z,1696
2018-09-02T07:59:45.178Z,1740
2018-09-02T08:00:45.858Z,1552
2018-09-02T08:01:46.536Z,1468
2018-09-02T08:02:47.295Z,1536
2018-09-02T08:03:47.929Z,1412
2018-09-02T08:04:48.608Z,1552
2018-09-02T08:05:49.287Z,1644
2018-09-02T08:06:49.965Z,1700
2018-09-02T08:07:50.644Z,1776
2018-09-02T08:08:51.322Z,1896
2018-09-02T08:09:52.001Z,1880
2018-09-02T08:10:52.681Z,1884
2018-09-02T08:11:53.452Z,1960
2018-09-02T08:12:54.284Z,1892
2018-09-02T08:13:54.808Z,1848
2018-09-02T08:14:55.486Z,1676
2018-09-02T08:15:56.166Z,1832
2018-09-02T08:16:56.849Z,2344
2018-09-02T08:17:57.554Z,2484
2018-09-02T08:18:58.250Z,2672
2018-09-02T08:19:59.048Z,2900
2018-09-02T08:20:59.652Z,3044
2018-09-02T08:22:00.332Z,2924
2018-09-02T08:23:01.013Z,3116
2018-09-02T08:24:01.693Z,3292
2018-09-02T08:25:02.374Z,4160
2018-09-02T08:26:03.054Z,4968
2018-09-02T08:27:03.733Z,4640
2018-09-02T08:28:04.413Z,4864
2018-09-02T08:29:05.095Z,4436
2018-09-02T08:30:05.774Z,3684
2018-09-02T08:31:06.453Z,2992
2018-09-02T08:32:07.132Z,2548
2018-09-02T08:33:07.901Z,2340
2018-09-02T08:34:08.491Z,2252
2018-09-02T08:35:09.173Z,2556
2018-09-02T08:36:09.893Z,2720
2018-09-02T08:37:10.572Z,2428
2018-09-02T08:38:11.252Z,2936
2018-09-02T08:39:11.996Z,2420
2018-09-02T08:40:12.611Z,2324
2018-09-02T08:41:13.290Z,3100
2018-09-02T08:42:14.013Z,2024
2018-09-02T08:43:14.692Z,2172
2018-09-02T08:44:15.380Z,2396
2018-09-02T08:45:16.084Z,1684
2018-09-02T08:46:16.764Z,1860
2018-09-02T08:47:17.444Z,2144
2018-09-02T08:48:18.122Z,2112
2018-09-02T08:49:18.806Z,2032
2018-09-02T08:50:19.570Z,1848
2018-09-02T08:51:20.203Z,2352
2018-09-02T08:52:20.888Z,3076
2018-09-02T08:53:21.568Z,2720
2018-09-02T08:54:22.276Z,1948
2018-09-02T08:55:23.006Z,1332
2018-09-02T08:56:23.690Z,1524
2018-09-02T08:57:24.369Z,1452
2018-09-02T08:58:25.091Z,1216
2018-09-02T08:59:25.772Z,1172
2018-09-02T09:00:26.452Z,1316
2018-09-02T09:01:27.131Z,2076
2018-09-02T09:02:27.812Z,1524
2018-09-02T09:03:28.491Z,1020
2018-09-02T09:04:29.170Z,1788
2018-09-02T09:05:29.850Z,2372
2018-09-02T09:06:30.529Z,1868
2018-09-02T09:07:31.271Z,1656
2018-09-02T09:08:32.317Z,2272
2018-09-02T09:09:32.566Z,2292
2018-09-02T09:10:33.287Z,1996
2018-09-02T09:11:33.965Z,1396
2018-09-02T09:12:34.645Z,1476
2018-09-02T09:13:35.325Z,1472
2018-09-02T09:14:36.008Z,1196
2018-09-02T09:15:36.727Z,1356
2018-09-02T09:16:37.419Z,1332
2018-09-02T09:17:38.090Z,936
2018-09-02T09:18:38.806Z,1032
2018-09-02T09:19:39.485Z,1292
2018-09-02T09:20:40.163Z,1240
2018-09-02T09:21:40.908Z,1012
2018-09-02T09:22:41.603Z,1152
2018-09-02T09:23:42.234Z,1356
2018-09-02T09:24:42.921Z,1380
2018-09-02T09:25:43.609Z,1012
2018-09-02T09:26:44.287Z,1124
2018-09-02T09:27:45.015Z,1204
2018-09-02T09:28:45.730Z,1032
2018-09-02T09:29:46.413Z,1148
2018-09-02T09:30:47.131Z,1284
2018-09-02T09:31:47.810Z,1372
2018-09-02T09:32:48.489Z,1356
2018-09-02T09:33:49.167Z,1532
2018-09-02T09:34:49.846Z,1372
2018-09-02T09:35:50.531Z,1212
2018-09-02T09:36:51.205Z,1340
2018-09-02T09:37:51.884Z,1432
2018-09-02T09:38:52.564Z,1156
2018-09-02T09:39:53.241Z,1228
2018-09-02T09:40:53.921Z,1624
2018-09-02T09:41:54.600Z,1352
2018-09-02T09:42:55.278Z,1372
2018-09-02T09:43:56.000Z,1180
2018-09-02T09:44:56.720Z,1100
2018-09-02T09:45:57.469Z,1044
2018-09-02T09:46:58.078Z,1096
2018-09-02T09:47:58.807Z,1100
2018-09-02T09:48:59.483Z,1132
2018-09-02T09:50:00.163Z,1196
2018-09-02T09:51:00.844Z,1144
2018-09-02T09:52:01.521Z,1088
2018-09-02T09:53:02.247Z,960
2018-09-02T09:54:02.965Z,1088
2018-09-02T09:55:03.643Z,1184
2018-09-02T09:56:04.320Z,1248
2018-09-02T09:57:05.002Z,1424
2018-09-02T09:58:05.701Z,1488
2018-09-02T09:59:06.403Z,1524
2018-09-02T10:00:07.082Z,1424
2018-09-02T10:01:07.761Z,1360
2018-09-02T10:02:08.441Z,1448
2018-09-02T10:03:09.122Z,1376
2018-09-02T10:04:09.845Z,1348
2018-09-02T10:05:10.520Z,1344
2018-09-02T10:06:11.200Z,1340
2018-09-02T10:07:11.878Z,1304
2018-09-02T10:08:12.556Z,1336
2018-09-02T10:09:13.238Z,1352
2018-09-02T10:10:13.955Z,1524
2018-09-02T10:11:14.635Z,1648
2018-09-02T10:12:15.329Z,1684
2018-09-02T10:13:16.035Z,1704
2018-09-02T10:14:16.713Z,1848
2018-09-02T10:15:17.391Z,1872
2018-09-02T10:16:18.070Z,1592
2018-09-02T10:17:18.828Z,1576
2018-09-02T10:18:19.427Z,1660
2018-09-02T10:19:20.110Z,1920
2018-09-02T10:20:20.787Z,1904
2018-09-02T10:21:21.464Z,1732
2018-09-02T10:22:22.143Z,1564
2018-09-02T10:23:22.821Z,1316
2018-09-02T10:24:23.499Z,1468
2018-09-02T10:25:24.177Z,1544
2018-09-02T10:26:24.857Z,1904
2018-09-02T10:27:25.582Z,2052
2018-09-02T10:28:26.251Z,1920
2018-09-02T10:29:26.929Z,1784
2018-09-02T10:30:27.607Z,1876
2018-09-02T10:31:28.286Z,2176
2018-09-02T10:32:28.967Z,1960
2018-09-02T10:33:29.792Z,1776
2018-09-02T10:34:30.367Z,1776
2018-09-02T10:35:31.047Z,1768
2018-09-02T10:36:31.726Z,1564
2018-09-02T10:37:32.447Z,1656
2018-09-02T10:38:33.126Z,1564
2018-09-02T10:39:33.807Z,1280
2018-09-02T10:40:34.485Z,1268
2018-09-02T10:41:35.232Z,1332
2018-09-02T10:42:35.843Z,1400
2018-09-02T10:43:36.565Z,1516
2018-09-02T10:44:37.286Z,1568
2018-09-02T10:45:37.966Z,1728
2018-09-02T10:46:38.644Z,1576
2018-09-02T10:47:39.324Z,1992
2018-09-02T10:48:40.004Z,2064
2018-09-02T10:49:40.749Z,1892
2018-09-02T10:50:41.361Z,1808
2018-09-02T10:51:42.081Z,1948
2018-09-02T10:52:42.775Z,2296
2018-09-02T10:53:43.485Z,2576
2018-09-02T10:54:44.165Z,2836
2018-09-02T10:55:44.888Z,2880
2018-09-02T10:56:45.568Z,2764
2018-09-02T10:57:46.290Z,2628
2018-09-02T10:58:47.012Z,2908
2018-09-02T10:59:47.692Z,2604
2018-09-02T11:00:48.371Z,2500
2018-09-02T11:01:49.095Z,2752
2018-09-02T11:02:49.776Z,3452
2018-09-02T11:03:50.456Z,3432
2018-09-02T11:04:51.176Z,2632
2018-09-02T11:05:51.871Z,2560
2018-09-02T11:06:52.583Z,2764
2018-09-02T11:07:53.299Z,2452
2018-09-02T11:08:53.983Z,2340
2018-09-02T11:09:54.754Z,3156
2018-09-02T11:10:55.432Z,3576
2018-09-02T11:11:56.112Z,2992
2018-09-02T11:12:56.940Z,2392
2018-09-02T11:13:57.712Z,2056
2018-09-02T11:14:58.219Z,2396
2018-09-02T11:15:58.916Z,2232
2018-09-02T11:16:59.595Z,1764
2018-09-02T11:18:00.274Z,1928
2018-09-02T11:19:00.977Z,2064
2018-09-02T11:20:01.676Z,2820
2018-09-02T11:21:02.359Z,2988
2018-09-02T11:22:03.080Z,2468
2018-09-02T11:23:03.757Z,2304
2018-09-02T11:24:04.438Z,2064
2018-09-02T11:25:05.138Z,2180
2018-09-02T11:26:05.839Z,1972
2018-09-02T11:27:06.560Z,2068
2018-09-02T11:28:07.239Z,2844
2018-09-02T11:29:07.969Z,3116
2018-09-02T11:30:08.641Z,3372
2018-09-02T11:31:09.321Z,3044
2018-09-02T11:32:10.008Z,3252
2018-09-02T11:33:10.826Z,3040
2018-09-02T11:34:11.531Z,2872
2018-09-02T11:35:12.219Z,2620
2018-09-02T11:36:12.900Z,1936
2018-09-02T11:37:13.579Z,3108
2018-09-02T11:38:14.256Z,2620
2018-09-02T11:39:14.949Z,2300
2018-09-02T11:40:15.724Z,1984
2018-09-02T11:41:16.376Z,2260
2018-09-02T11:42:17.051Z,1792
2018-09-02T11:43:17.784Z,1884
2018-09-02T11:44:18.505Z,1712
2018-09-02T11:45:19.184Z,1552
2018-09-02T11:46:19.862Z,1556
2018-09-02T11:47:20.546Z,1868
2018-09-02T11:48:21.228Z,1824
2018-09-02T11:49:21.965Z,1784
2018-09-02T11:50:22.668Z,1624
2018-09-02T11:51:23.348Z,1412
2018-09-02T11:52:24.028Z,1504
2018-09-02T11:53:24.708Z,1684
2018-09-02T11:54:25.390Z,1644
2018-09-02T11:55:26.065Z,1464
2018-09-02T11:56:26.745Z,1644
2018-09-02T11:57:27.468Z,2024
2018-09-02T11:58:28.172Z,1808
2018-09-02T11:59:28.872Z,1504
2018-09-02T12:00:29.550Z,1620
2018-09-02T12:01:30.230Z,1568
2018-09-02T12:02:30.911Z,1440
2018-09-02T12:03:31.592Z,1660
2018-09-02T12:04:32.271Z,1592
2018-09-02T12:05:33.042Z,1540
2018-09-02T12:06:33.677Z,1564
2018-09-02T12:07:34.357Z,1892
2018-09-02T12:08:35.036Z,2032
2018-09-02T12:09:35.729Z,2028
2018-09-02T12:10:36.439Z,2036
2018-09-02T12:11:37.183Z,1860
2018-09-02T12:12:37.845Z,1948
2018-09-02T12:13:38.560Z,1856
2018-09-02T12:14:39.331Z,1828
2018-09-02T12:15:39.921Z,1948
2018-09-02T12:16:40.599Z,2064
2018-09-02T12:17:41.280Z,2040
2018-09-02T12:18:41.960Z,1948
2018-09-02T12:19:42.640Z,1856
2018-09-02T12:20:43.371Z,2204
2018-09-02T12:21:44.092Z,2564
2018-09-02T12:22:44.773Z,1932
2018-09-02T12:23:45.487Z,2052
2018-09-02T12:24:46.174Z,2048
2018-09-02T12:25:46.855Z,2232
2018-09-02T12:26:47.535Z,2024
2018-09-02T12:27:48.215Z,2584
2018-09-02T12:28:48.895Z,2128
2018-09-02T12:29:49.636Z,2076
2018-09-02T12:30:50.356Z,1904
2018-09-02T12:31:51.069Z,1860
2018-09-02T12:32:51.792Z,1712
2018-09-02T12:33:52.486Z,1616
2018-09-02T12:34:53.194Z,1660
2018-09-02T12:35:53.874Z,1684
2018-09-02T12:36:54.553Z,1680
2018-09-02T12:37:55.259Z,1764
2018-09-02T12:38:55.984Z,1848
2018-09-02T12:39:56.681Z,1992
2018-09-02T12:40:57.358Z,1816
2018-09-02T12:41:58.038Z,1872
2018-09-02T12:42:58.718Z,2088
2018-09-02T12:43:59.397Z,1948
2018-09-02T12:45:00.079Z,1876
2018-09-02T12:46:00.799Z,1668
2018-09-02T12:47:01.488Z,1780
2018-09-02T12:48:02.251Z,1752
2018-09-02T12:49:02.895Z,1716
2018-09-02T12:50:03.610Z,1744
2018-09-02T12:51:04.289Z,1696
2018-09-02T12:52:05.010Z,1744
2018-09-02T12:53:05.689Z,1600
2018-09-02T12:54:06.407Z,1604
2018-09-02T12:55:07.208Z,1764
2018-09-02T12:56:07.812Z,1840
2018-09-02T12:57:08.534Z,1652
2018-09-02T12:58:09.256Z,1900
2018-09-02T12:59:09.936Z,1876
2018-09-02T13:00:10.708Z,1932
2018-09-02T13:01:11.412Z,1864
2018-09-02T13:02:12.104Z,1716
2018-09-02T13:03:12.795Z,1812
2018-09-02T13:04:13.476Z,1848
2018-09-02T13:05:14.186Z,1836
2018-09-02T13:06:14.899Z,2036
2018-09-02T13:07:15.602Z,1796
2018-09-02T13:08:16.282Z,2008
2018-09-02T13:09:16.976Z,2060
2018-09-02T13:10:17.687Z,2244
2018-09-02T13:11:18.367Z,2436
2018-09-02T13:12:19.045Z,2116
2018-09-02T13:13:19.767Z,2256
2018-09-02T13:14:20.449Z,2656
2018-09-02T13:15:21.161Z,2592
2018-09-02T13:16:21.820Z,2620
2018-09-02T13:17:22.546Z,2268
2018-09-02T13:18:23.254Z,2360
2018-09-02T13:19:23.934Z,2436
2018-09-02T13:20:24.613Z,2116
2018-09-02T13:21:25.296Z,2040
2018-09-02T13:22:25.972Z,1896
2018-09-02T13:23:26.653Z,1928
2018-09-02T13:24:27.424Z,1916
2018-09-02T13:25:28.061Z,2088
2018-09-02T13:26:28.754Z,2176
2018-09-02T13:27:29.467Z,2200
2018-09-02T13:28:30.187Z,2128
2018-09-02T13:29:30.867Z,1884
2018-09-02T13:30:31.558Z,2440
2018-09-02T13:31:32.271Z,2304
2018-09-02T13:32:32.979Z,2148
2018-09-02T13:33:33.686Z,2332
2018-09-02T13:34:34.369Z,2208
2018-09-02T13:35:35.079Z,2044
2018-09-02T13:36:35.777Z,2008
2018-09-02T13:37:36.507Z,1780
2018-09-02T13:38:37.206Z,1592
2018-09-02T13:39:37.887Z,1424
2018-09-02T13:40:38.595Z,1284
2018-09-02T13:41:39.292Z,1288
2018-09-02T13:42:39.972Z,1232
2018-09-02T13:43:40.653Z,1164
2018-09-02T13:44:41.332Z,1000
2018-09-02T13:45:42.014Z,1108
2018-09-02T13:46:42.738Z,1168
2018-09-02T13:47:43.417Z,1080
2018-09-02T13:48:44.111Z,1052
2018-09-02T13:49:44.821Z,1108
2018-09-02T13:50:45.503Z,1008
2018-09-02T13:51:46.181Z,924
2018-09-02T13:52:46.860Z,952
2018-09-02T13:53:47.541Z,1084
2018-09-02T13:54:48.331Z,1104
2018-09-02T13:55:48.900Z,1148
2018-09-02T13:56:49.588Z,980
2018-09-02T13:57:50.262Z,936
2018-09-02T13:58:50.938Z,1260
2018-09-02T13:59:51.738Z,1276